sensor_id;sensor_type;location;lat;lon;timestamp;pressure;altitude;pressure_sealevel;temperature;humidity
65175;BME280;51761;42.126;24.752;2023-09-30T00:01:43;99848.53;;;21.94;49.47
65175;BME280;51761;42.126;24.752;2023-09-30T00:04:09;99846.50;;;21.80;49.88
65175;BME280;51761;42.126;24.752;2023-09-30T00:06:34;99854.66;;;21.87;49.78
65175;BME280;51761;42.126;24.752;2023-09-30T00:09:00;99856.88;;;21.83;50.41
65175;BME280;51761;42.126;24.752;2023-09-30T00:11:25;99860.53;;;21.84;50.23
65175;BME280;51761;42.126;24.752;2023-09-30T00:13:51;99859.53;;;21.87;50.52
65175;BME280;51761;42.126;24.752;2023-09-30T00:16:17;99850.44;;;21.83;50.72
65175;BME280;51761;42.126;24.752;2023-09-30T00:18:44;99826.84;;;21.62;50.75
65175;BME280;51761;42.126;24.752;2023-09-30T00:21:10;99850.44;;;21.83;50.55
65175;BME280;51761;42.126;24.752;2023-09-30T00:23:35;99845.44;;;21.78;50.57
65175;BME280;51761;42.126;24.752;2023-09-30T00:26:01;99840.06;;;21.80;50.29
65175;BME280;51761;42.126;24.752;2023-09-30T00:28:26;99845.06;;;21.70;50.69
65175;BME280;51761;42.126;24.752;2023-09-30T00:30:52;99848.50;;;21.74;50.15
65175;BME280;51761;42.126;24.752;2023-09-30T00:33:17;99839.09;;;21.68;49.83
65175;BME280;51761;42.126;24.752;2023-09-30T00:35:43;99839.09;;;21.68;49.99
65175;BME280;51761;42.126;24.752;2023-09-30T00:38:08;99837.53;;;21.67;50.07
65175;BME280;51761;42.126;24.752;2023-09-30T00:40:35;99820.56;;;21.58;50.05
65175;BME280;51761;42.126;24.752;2023-09-30T00:43:01;99840.47;;;21.73;50.08
65175;BME280;51761;42.126;24.752;2023-09-30T00:45:27;99839.38;;;21.70;50.66
65175;BME280;51761;42.126;24.752;2023-09-30T00:47:53;99841.34;;;21.64;50.55
65175;BME280;51761;42.126;24.752;2023-09-30T00:50:22;99839.50;;;21.61;50.88
65175;BME280;51761;42.126;24.752;2023-09-30T00:52:49;99786.22;;;21.27;51.03
65175;BME280;51761;42.126;24.752;2023-09-30T00:55:15;99840.84;;;21.66;51.03
65175;BME280;51761;42.126;24.752;2023-09-30T00:57:42;99835.78;;;21.55;51.52
65175;BME280;51761;42.126;24.752;2023-09-30T01:00:10;99836.53;;;21.56;51.13
65175;BME280;51761;42.126;24.752;2023-09-30T01:02:38;99819.59;;;21.47;51.21
65175;BME280;51761;42.126;24.752;2023-09-30T01:05:04;99842.34;;;21.61;51.43
65175;BME280;51761;42.126;24.752;2023-09-30T01:07:30;99845.19;;;21.61;51.22
65175;BME280;51761;42.126;24.752;2023-09-30T01:09:55;99822.81;;;21.40;51.39
65175;BME280;51761;42.126;24.752;2023-09-30T01:12:21;99849.28;;;21.60;51.31
65175;BME280;51761;42.126;24.752;2023-09-30T01:14:46;99848.03;;;21.47;51.61
65175;BME280;51761;42.126;24.752;2023-09-30T01:17:12;99833.00;;;21.46;51.87
65175;BME280;51761;42.126;24.752;2023-09-30T01:19:41;99817.13;;;21.40;51.78
65175;BME280;51761;42.126;24.752;2023-09-30T01:22:10;99849.09;;;21.49;51.77
65175;BME280;51761;42.126;24.752;2023-09-30T01:24:40;99845.94;;;21.47;51.70
65175;BME280;51761;42.126;24.752;2023-09-30T01:27:06;99819.69;;;21.38;52.22
65175;BME280;51761;42.126;24.752;2023-09-30T01:29:31;99842.81;;;21.45;52.03
65175;BME280;51761;42.126;24.752;2023-09-30T01:31:57;99842.44;;;21.38;51.80
65175;BME280;51761;42.126;24.752;2023-09-30T01:34:23;99847.03;;;21.35;52.23
65175;BME280;51761;42.126;24.752;2023-09-30T01:36:48;99828.34;;;21.14;52.63
65175;BME280;51761;42.126;24.752;2023-09-30T01:39:14;99845.78;;;21.22;52.23
65175;BME280;51761;42.126;24.752;2023-09-30T01:41:40;99828.03;;;21.12;52.42
65175;BME280;51761;42.126;24.752;2023-09-30T01:44:06;99849.09;;;21.20;53.92
65175;BME280;51761;42.126;24.752;2023-09-30T01:46:33;99849.38;;;21.22;53.27
65175;BME280;51761;42.126;24.752;2023-09-30T01:48:58;99852.81;;;21.12;53.32
65175;BME280;51761;42.126;24.752;2023-09-30T01:51:24;99846.94;;;21.15;53.24
65175;BME280;51761;42.126;24.752;2023-09-30T01:53:49;99850.19;;;21.23;53.19
65175;BME280;51761;42.126;24.752;2023-09-30T01:56:15;99830.59;;;21.10;52.98
65175;BME280;51761;42.126;24.752;2023-09-30T01:58:41;99828.16;;;21.03;53.30
65175;BME280;51761;42.126;24.752;2023-09-30T02:01:06;99825.78;;;20.88;53.88
65175;BME280;51761;42.126;24.752;2023-09-30T02:03:32;99829.50;;;20.93;53.35
65175;BME280;51761;42.126;24.752;2023-09-30T02:05:58;99838.09;;;20.85;53.97
65175;BME280;51761;42.126;24.752;2023-09-30T02:08:24;99839.38;;;20.84;54.20
65175;BME280;51761;42.126;24.752;2023-09-30T02:10:50;99839.19;;;20.87;54.60
65175;BME280;51761;42.126;24.752;2023-09-30T02:13:19;99837.31;;;20.84;54.28
65175;BME280;51761;42.126;24.752;2023-09-30T02:15:45;99826.22;;;20.72;54.30
65175;BME280;51761;42.126;24.752;2023-09-30T02:18:11;99836.91;;;20.77;54.18
65175;BME280;51761;42.126;24.752;2023-09-30T02:20:37;99842.16;;;20.69;54.85
65175;BME280;51761;42.126;24.752;2023-09-30T02:23:09;99827.13;;;20.54;55.06
65175;BME280;51761;42.126;24.752;2023-09-30T02:25:37;99849.06;;;20.54;56.00
65175;BME280;51761;42.126;24.752;2023-09-30T02:28:02;99831.75;;;20.52;55.65
65175;BME280;51761;42.126;24.752;2023-09-30T02:30:28;99843.31;;;20.63;55.60
65175;BME280;51761;42.126;24.752;2023-09-30T02:32:53;99820.47;;;20.43;55.42
65175;BME280;51761;42.126;24.752;2023-09-30T02:35:21;99843.09;;;20.52;55.57
65175;BME280;51761;42.126;24.752;2023-09-30T02:37:46;99836.69;;;20.42;55.52
65175;BME280;51761;42.126;24.752;2023-09-30T02:40:12;99840.28;;;20.28;55.94
65175;BME280;51761;42.126;24.752;2023-09-30T02:42:40;99820.56;;;20.10;56.30
65175;BME280;51761;42.126;24.752;2023-09-30T02:45:07;99822.00;;;20.06;56.62
65175;BME280;51761;42.126;24.752;2023-09-30T02:47:34;99822.00;;;20.06;56.62
65175;BME280;51761;42.126;24.752;2023-09-30T02:50:00;99825.91;;;20.08;57.02
65175;BME280;51761;42.126;24.752;2023-09-30T02:52:25;99840.84;;;20.18;56.94
65175;BME280;51761;42.126;24.752;2023-09-30T02:54:51;99847.69;;;20.26;56.66
65175;BME280;51761;42.126;24.752;2023-09-30T02:57:17;99834.44;;;20.08;57.00
65175;BME280;51761;42.126;24.752;2023-09-30T02:59:43;99815.31;;;19.85;57.08
65175;BME280;51761;42.126;24.752;2023-09-30T03:02:10;99838.06;;;20.00;57.72
65175;BME280;51761;42.126;24.752;2023-09-30T03:04:36;99813.88;;;19.90;56.61
65175;BME280;51761;42.126;24.752;2023-09-30T03:07:02;99840.31;;;19.96;57.25
65175;BME280;51761;42.126;24.752;2023-09-30T03:09:27;99834.63;;;19.96;56.39
65175;BME280;51761;42.126;24.752;2023-09-30T03:11:53;99829.94;;;19.93;56.83
65175;BME280;51761;42.126;24.752;2023-09-30T03:14:21;99828.34;;;19.92;56.48
65175;BME280;51761;42.126;24.752;2023-09-30T03:16:48;99805.00;;;19.73;57.01
65175;BME280;51761;42.126;24.752;2023-09-30T03:19:14;99829.34;;;19.80;56.69
65175;BME280;51761;42.126;24.752;2023-09-30T03:21:44;99821.34;;;19.78;56.85
65175;BME280;51761;42.126;24.752;2023-09-30T03:24:10;99832.84;;;19.75;56.84
65175;BME280;51761;42.126;24.752;2023-09-30T03:26:36;99836.13;;;19.82;56.72
65175;BME280;51761;42.126;24.752;2023-09-30T03:29:07;99842.41;;;19.86;56.40
65175;BME280;51761;42.126;24.752;2023-09-30T03:31:34;99834.13;;;19.74;56.32
65175;BME280;51761;42.126;24.752;2023-09-30T03:34:00;99837.25;;;19.76;56.51
65175;BME280;51761;42.126;24.752;2023-09-30T03:36:26;99830.38;;;19.68;56.29
65175;BME280;51761;42.126;24.752;2023-09-30T03:38:54;99810.44;;;19.53;57.12
65175;BME280;51761;42.126;24.752;2023-09-30T03:41:20;99813.88;;;19.57;56.51
65175;BME280;51761;42.126;24.752;2023-09-30T03:43:45;99830.97;;;19.72;56.47
65175;BME280;51761;42.126;24.752;2023-09-30T03:46:12;99814.69;;;19.58;55.80
65175;BME280;51761;42.126;24.752;2023-09-30T03:48:38;99838.38;;;19.69;56.46
65175;BME280;51761;42.126;24.752;2023-09-30T03:51:08;99818.44;;;19.55;56.50
65175;BME280;51761;42.126;24.752;2023-09-30T03:53:34;99831.50;;;19.61;56.17
65175;BME280;51761;42.126;24.752;2023-09-30T03:55:59;99830.72;;;19.61;57.58
65175;BME280;51761;42.126;24.752;2023-09-30T03:58:25;99824.09;;;19.64;56.44
65175;BME280;51761;42.126;24.752;2023-09-30T04:00:51;99833.03;;;19.71;55.75
65175;BME280;51761;42.126;24.752;2023-09-30T04:03:17;99831.44;;;19.70;54.92
65175;BME280;51761;42.126;24.752;2023-09-30T04:05:42;99835.06;;;19.71;55.69
65175;BME280;51761;42.126;24.752;2023-09-30T04:08:08;99836.03;;;19.68;55.89
65175;BME280;51761;42.126;24.752;2023-09-30T04:10:33;99839.22;;;19.61;55.57
65175;BME280;51761;42.126;24.752;2023-09-30T04:12:59;99834.78;;;19.69;55.52
65175;BME280;51761;42.126;24.752;2023-09-30T04:15:25;99833.19;;;19.68;55.66
65175;BME280;51761;42.126;24.752;2023-09-30T04:17:50;99841.69;;;19.68;55.13
65175;BME280;51761;42.126;24.752;2023-09-30T04:20:17;99833.66;;;19.66;55.42
65175;BME280;51761;42.126;24.752;2023-09-30T04:22:45;99837.34;;;19.58;55.65
65175;BME280;51761;42.126;24.752;2023-09-30T04:25:14;99830.47;;;19.41;56.25
65175;BME280;51761;42.126;24.752;2023-09-30T04:27:42;99850.56;;;19.52;56.46
65175;BME280;51761;42.126;24.752;2023-09-30T04:30:07;99849.63;;;19.55;56.55
65175;BME280;51761;42.126;24.752;2023-09-30T04:32:40;99852.78;;;19.57;56.94
65175;BME280;51761;42.126;24.752;2023-09-30T04:35:06;99865.03;;;19.54;57.04
65175;BME280;51761;42.126;24.752;2023-09-30T04:37:34;99865.22;;;19.50;56.85
65175;BME280;51761;42.126;24.752;2023-09-30T04:39:59;99845.16;;;19.30;57.56
65175;BME280;51761;42.126;24.752;2023-09-30T04:42:25;99862.91;;;19.40;57.79
65175;BME280;51761;42.126;24.752;2023-09-30T04:44:51;99856.78;;;19.32;58.03
65175;BME280;51761;42.126;24.752;2023-09-30T04:47:17;99834.63;;;19.31;57.23
65175;BME280;51761;42.126;24.752;2023-09-30T04:49:44;99855.16;;;19.49;57.19
65175;BME280;51761;42.126;24.752;2023-09-30T04:52:09;99867.91;;;19.45;57.82
65175;BME280;51761;42.126;24.752;2023-09-30T04:54:35;99844.69;;;19.32;58.64
65175;BME280;51761;42.126;24.752;2023-09-30T04:57:01;99843.72;;;19.35;57.76
65175;BME280;51761;42.126;24.752;2023-09-30T04:59:27;99868.19;;;19.56;58.51
65175;BME280;51761;42.126;24.752;2023-09-30T05:01:53;99865.84;;;19.54;57.39
65175;BME280;51761;42.126;24.752;2023-09-30T05:04:20;99861.84;;;19.70;55.95
65175;BME280;51761;42.126;24.752;2023-09-30T05:06:45;99860.38;;;19.83;56.42
65175;BME280;51761;42.126;24.752;2023-09-30T05:09:11;99870.88;;;19.92;56.40
65175;BME280;51761;42.126;24.752;2023-09-30T05:11:37;99871.50;;;20.28;62.58
65175;BME280;51761;42.126;24.752;2023-09-30T05:14:03;99872.28;;;20.67;59.88
65175;BME280;51761;42.126;24.752;2023-09-30T05:16:30;99853.59;;;21.27;58.96
65175;BME280;51761;42.126;24.752;2023-09-30T05:18:57;99862.19;;;21.90;54.24
65175;BME280;51761;42.126;24.752;2023-09-30T05:21:22;99873.59;;;22.84;68.19
65175;BME280;51761;42.126;24.752;2023-09-30T05:23:48;99861.00;;;23.42;54.54
65175;BME280;51761;42.126;24.752;2023-09-30T05:26:13;99876.56;;;24.03;52.58
65175;BME280;51761;42.126;24.752;2023-09-30T05:28:39;99875.28;;;24.45;48.51
65175;BME280;51761;42.126;24.752;2023-09-30T05:31:04;99880.56;;;24.63;52.34
65175;BME280;51761;42.126;24.752;2023-09-30T05:33:30;99894.69;;;24.94;52.53
65175;BME280;51761;42.126;24.752;2023-09-30T05:35:55;99868.47;;;24.96;45.74
65175;BME280;51761;42.126;24.752;2023-09-30T05:38:21;99895.94;;;25.57;41.94
65175;BME280;51761;42.126;24.752;2023-09-30T05:40:48;99896.72;;;26.12;42.84
65175;BME280;51761;42.126;24.752;2023-09-30T05:43:14;99892.91;;;26.83;40.68
65175;BME280;51761;42.126;24.752;2023-09-30T05:45:40;99892.66;;;27.33;39.93
65175;BME280;51761;42.126;24.752;2023-09-30T05:48:15;99888.38;;;27.50;42.59
65175;BME280;51761;42.126;24.752;2023-09-30T05:50:41;99890.88;;;27.99;42.48
65175;BME280;51761;42.126;24.752;2023-09-30T05:53:08;99899.31;;;28.16;42.65
65175;BME280;51761;42.126;24.752;2023-09-30T05:55:35;99896.59;;;28.29;38.19
65175;BME280;51761;42.126;24.752;2023-09-30T05:58:01;99907.03;;;28.56;39.80
65175;BME280;51761;42.126;24.752;2023-09-30T06:00:27;99877.03;;;28.51;37.91
65175;BME280;51761;42.126;24.752;2023-09-30T06:02:56;99909.34;;;28.81;37.53
65175;BME280;51761;42.126;24.752;2023-09-30T06:05:22;99889.91;;;28.87;37.19
65175;BME280;51761;42.126;24.752;2023-09-30T06:07:48;99894.38;;;28.88;34.54
65175;BME280;51761;42.126;24.752;2023-09-30T06:10:14;99910.72;;;29.17;33.30
65175;BME280;51761;42.126;24.752;2023-09-30T06:12:44;99914.47;;;29.12;33.26
65175;BME280;51761;42.126;24.752;2023-09-30T06:15:10;99910.53;;;29.52;33.21
65175;BME280;51761;42.126;24.752;2023-09-30T06:17:35;99922.25;;;29.72;32.91
65175;BME280;51761;42.126;24.752;2023-09-30T06:20:04;99917.13;;;29.97;32.75
65175;BME280;51761;42.126;24.752;2023-09-30T06:22:34;99921.09;;;29.94;32.54
65175;BME280;51761;42.126;24.752;2023-09-30T06:24:59;99906.00;;;30.19;32.25
65175;BME280;51761;42.126;24.752;2023-09-30T06:27:25;99906.00;;;30.19;32.44
65175;BME280;51761;42.126;24.752;2023-09-30T06:29:51;99917.94;;;30.55;31.95
65175;BME280;51761;42.126;24.752;2023-09-30T06:32:16;99913.78;;;30.69;31.57
65175;BME280;51761;42.126;24.752;2023-09-30T06:34:42;99915.75;;;30.74;32.14
65175;BME280;51761;42.126;24.752;2023-09-30T06:37:08;99912.78;;;30.79;32.21
65175;BME280;51761;42.126;24.752;2023-09-30T06:39:33;99912.03;;;31.38;31.05
65175;BME280;51761;42.126;24.752;2023-09-30T06:41:59;99920.91;;;31.40;29.84
65175;BME280;51761;42.126;24.752;2023-09-30T06:44:24;99914.78;;;31.43;29.56
65175;BME280;51761;42.126;24.752;2023-09-30T06:46:50;99901.53;;;31.27;29.38
65175;BME280;51761;42.126;24.752;2023-09-30T06:49:16;99880.91;;;31.11;28.59
65175;BME280;51761;42.126;24.752;2023-09-30T06:51:42;99906.28;;;31.38;29.33
65175;BME280;51761;42.126;24.752;2023-09-30T06:54:07;99901.22;;;30.92;29.50
65175;BME280;51761;42.126;24.752;2023-09-30T06:56:33;99920.59;;;31.30;28.82
65175;BME280;51761;42.126;24.752;2023-09-30T06:58:58;99904.31;;;31.20;28.87
65175;BME280;51761;42.126;24.752;2023-09-30T07:01:24;99914.09;;;31.63;28.54
65175;BME280;51761;42.126;24.752;2023-09-30T07:03:50;99919.16;;;31.70;28.28
65175;BME280;51761;42.126;24.752;2023-09-30T07:06:24;99918.78;;;31.40;28.43
65175;BME280;51761;42.126;24.752;2023-09-30T07:08:50;99925.81;;;31.78;27.92
65175;BME280;51761;42.126;24.752;2023-09-30T07:11:15;99924.84;;;31.96;27.85
65175;BME280;51761;42.126;24.752;2023-09-30T07:13:41;99926.13;;;32.08;27.71
65175;BME280;51761;42.126;24.752;2023-09-30T07:16:06;99916.03;;;32.22;27.63
65175;BME280;51761;42.126;24.752;2023-09-30T07:18:31;99915.53;;;32.31;27.51
65175;BME280;51761;42.126;24.752;2023-09-30T07:20:57;99904.44;;;32.63;26.85
65175;BME280;51761;42.126;24.752;2023-09-30T07:23:22;99921.81;;;32.43;26.57
65175;BME280;51761;42.126;24.752;2023-09-30T07:25:48;99924.34;;;33.02;26.53
65175;BME280;51761;42.126;24.752;2023-09-30T07:28:13;99924.19;;;33.07;26.53
65175;BME280;51761;42.126;24.752;2023-09-30T07:30:39;99904.59;;;32.86;26.85
65175;BME280;51761;42.126;24.752;2023-09-30T07:33:05;99922.75;;;32.93;26.76
65175;BME280;51761;42.126;24.752;2023-09-30T07:35:31;99910.97;;;32.91;26.58
65175;BME280;51761;42.126;24.752;2023-09-30T07:37:57;99914.56;;;33.12;25.74
65175;BME280;51761;42.126;24.752;2023-09-30T07:40:23;99916.69;;;33.47;25.69
65175;BME280;51761;42.126;24.752;2023-09-30T07:42:48;99927.69;;;33.49;25.67
65175;BME280;51761;42.126;24.752;2023-09-30T07:45:15;99937.41;;;33.66;25.40
65175;BME280;51761;42.126;24.752;2023-09-30T07:47:43;99932.97;;;33.65;25.35
65175;BME280;51761;42.126;24.752;2023-09-30T07:50:09;99919.31;;;33.81;25.22
65175;BME280;51761;42.126;24.752;2023-09-30T07:52:35;99935.22;;;34.10;24.77
65175;BME280;51761;42.126;24.752;2023-09-30T07:55:01;99915.16;;;34.19;25.02
65175;BME280;51761;42.126;24.752;2023-09-30T07:57:26;99912.44;;;34.21;24.18
65175;BME280;51761;42.126;24.752;2023-09-30T07:59:52;99935.00;;;34.15;24.55
65175;BME280;51761;42.126;24.752;2023-09-30T08:02:17;99923.81;;;34.27;24.36
65175;BME280;51761;42.126;24.752;2023-09-30T08:04:43;99927.47;;;33.97;24.54
65175;BME280;51761;42.126;24.752;2023-09-30T08:07:09;99935.56;;;34.06;24.32
65175;BME280;51761;42.126;24.752;2023-09-30T08:09:34;99917.41;;;33.91;24.60
65175;BME280;51761;42.126;24.752;2023-09-30T08:12:00;99929.19;;;34.00;24.68
65175;BME280;51761;42.126;24.752;2023-09-30T08:14:25;99904.53;;;33.49;24.55
65175;BME280;51761;42.126;24.752;2023-09-30T08:16:51;99931.00;;;33.60;24.85
65175;BME280;51761;42.126;24.752;2023-09-30T08:19:16;99902.91;;;33.33;24.53
65175;BME280;51761;42.126;24.752;2023-09-30T08:21:42;99913.53;;;33.38;24.62
65175;BME280;51761;42.126;24.752;2023-09-30T08:24:07;99912.34;;;33.76;24.93
65175;BME280;51761;42.126;24.752;2023-09-30T08:26:33;99923.00;;;34.11;24.57
65175;BME280;51761;42.126;24.752;2023-09-30T08:29:00;99922.03;;;33.94;24.13
65175;BME280;51761;42.126;24.752;2023-09-30T08:34:10;99914.69;;;34.15;24.46
65175;BME280;51761;42.126;24.752;2023-09-30T08:36:35;99912.03;;;34.17;24.05
65175;BME280;51761;42.126;24.752;2023-09-30T08:39:01;99919.56;;;34.28;24.57
65175;BME280;51761;42.126;24.752;2023-09-30T08:41:34;99914.56;;;34.28;23.96
65175;BME280;51761;42.126;24.752;2023-09-30T08:44:00;99904.88;;;34.26;23.99
65175;BME280;51761;42.126;24.752;2023-09-30T08:46:29;99912.03;;;34.55;23.20
65175;BME280;51761;42.126;24.752;2023-09-30T08:48:57;99922.47;;;34.58;23.39
65175;BME280;51761;42.126;24.752;2023-09-30T08:51:23;99914.34;;;34.63;23.10
65175;BME280;51761;42.126;24.752;2023-09-30T08:53:50;99901.78;;;34.68;23.27
65175;BME280;51761;42.126;24.752;2023-09-30T08:56:20;99919.00;;;34.52;23.64
65175;BME280;51761;42.126;24.752;2023-09-30T08:58:46;99910.47;;;34.54;23.87
65175;BME280;51761;42.126;24.752;2023-09-30T09:01:12;99913.00;;;34.50;23.31
65175;BME280;51761;42.126;24.752;2023-09-30T09:03:38;99908.75;;;34.66;23.45
65175;BME280;51761;42.126;24.752;2023-09-30T09:06:04;99895.38;;;34.70;23.20
65175;BME280;51761;42.126;24.752;2023-09-30T09:08:29;99892.09;;;34.81;23.17
65175;BME280;51761;42.126;24.752;2023-09-30T09:11:00;99915.88;;;34.87;22.52
65175;BME280;51761;42.126;24.752;2023-09-30T09:13:26;99894.59;;;34.62;22.59
65175;BME280;51761;42.126;24.752;2023-09-30T09:16:08;99896.94;;;34.63;22.86
65175;BME280;51761;42.126;24.752;2023-09-30T09:18:34;99891.91;;;34.71;23.06
65175;BME280;51761;42.126;24.752;2023-09-30T09:21:10;99897.81;;;35.11;22.61
65175;BME280;51761;42.126;24.752;2023-09-30T09:23:46;99883.38;;;34.58;22.36
65175;BME280;51761;42.126;24.752;2023-09-30T09:26:26;99896.16;;;34.63;22.73
65175;BME280;51761;42.126;24.752;2023-09-30T09:29:02;99882.25;;;34.54;23.37
65175;BME280;51761;42.126;24.752;2023-09-30T09:31:35;99888.72;;;35.07;22.75
65175;BME280;51761;42.126;24.752;2023-09-30T09:34:13;99880.94;;;35.24;22.50
65175;BME280;51761;42.126;24.752;2023-09-30T09:36:43;99881.84;;;35.34;21.99
65175;BME280;51761;42.126;24.752;2023-09-30T09:39:10;99886.13;;;35.26;22.80
65175;BME280;51761;42.126;24.752;2023-09-30T09:41:53;99868.56;;;35.16;21.89
65175;BME280;51761;42.126;24.752;2023-09-30T09:44:19;99877.88;;;35.62;22.16
65175;BME280;51761;42.126;24.752;2023-09-30T09:46:47;99862.75;;;35.16;22.37
65175;BME280;51761;42.126;24.752;2023-09-30T09:49:16;99862.63;;;34.99;21.00
65175;BME280;51761;42.126;24.752;2023-09-30T09:51:44;99870.44;;;35.29;21.82
65175;BME280;51761;42.126;24.752;2023-09-30T09:54:11;99872.56;;;35.36;21.08
65175;BME280;51761;42.126;24.752;2023-09-30T09:56:38;99864.06;;;34.68;21.68
65175;BME280;51761;42.126;24.752;2023-09-30T09:59:04;99861.72;;;34.82;21.75
65175;BME280;51761;42.126;24.752;2023-09-30T10:01:30;99838.59;;;34.99;21.76
65175;BME280;51761;42.126;24.752;2023-09-30T10:03:56;99833.88;;;34.57;22.61
65175;BME280;51761;42.126;24.752;2023-09-30T10:06:22;99840.66;;;34.67;22.05
65175;BME280;51761;42.126;24.752;2023-09-30T10:08:49;99844.84;;;34.88;20.09
65175;BME280;51761;42.126;24.752;2023-09-30T10:11:20;99851.03;;;34.84;20.33
65175;BME280;51761;42.126;24.752;2023-09-30T10:13:55;99846.22;;;34.87;20.67
65175;BME280;51761;42.126;24.752;2023-09-30T10:19:11;99836.16;;;34.80;21.67
65175;BME280;51761;42.126;24.752;2023-09-30T10:21:37;99817.56;;;34.91;20.92
65175;BME280;51761;42.126;24.752;2023-09-30T10:29:58;99824.13;;;35.70;20.55
65175;BME280;51761;42.126;24.752;2023-09-30T10:40:46;99801.84;;;35.41;19.99
65175;BME280;51761;42.126;24.752;2023-09-30T10:43:30;99797.72;;;35.51;18.94
65175;BME280;51761;42.126;24.752;2023-09-30T10:45:56;99784.28;;;35.31;19.44
65175;BME280;51761;42.126;24.752;2023-09-30T10:50:51;99790.78;;;35.00;20.29
65175;BME280;51761;42.126;24.752;2023-09-30T10:53:18;99770.59;;;34.77;20.16
65175;BME280;51761;42.126;24.752;2023-09-30T10:55:54;99775.34;;;34.97;19.94
65175;BME280;51761;42.126;24.752;2023-09-30T10:58:20;99790.91;;;35.24;19.93
65175;BME280;51761;42.126;24.752;2023-09-30T11:00:52;99779.59;;;35.36;20.01
65175;BME280;51761;42.126;24.752;2023-09-30T11:03:22;99776.44;;;35.41;19.83
65175;BME280;51761;42.126;24.752;2023-09-30T11:05:50;99775.56;;;35.31;19.76
65175;BME280;51761;42.126;24.752;2023-09-30T11:08:21;99762.88;;;35.19;21.62
65175;BME280;51761;42.126;24.752;2023-09-30T11:10:51;99771.75;;;35.21;20.19
65175;BME280;51761;42.126;24.752;2023-09-30T11:13:20;99769.56;;;34.90;19.75
65175;BME280;51761;42.126;24.752;2023-09-30T11:15:46;99769.53;;;34.97;20.97
65175;BME280;51761;42.126;24.752;2023-09-30T11:18:13;99738.88;;;35.11;19.98
65175;BME280;51761;42.126;24.752;2023-09-30T11:20:40;99749.50;;;35.16;20.92
65175;BME280;51761;42.126;24.752;2023-09-30T11:23:06;99756.38;;;35.36;20.15
65175;BME280;51761;42.126;24.752;2023-09-30T11:25:36;99735.47;;;35.30;20.07
65175;BME280;51761;42.126;24.752;2023-09-30T11:28:18;99758.06;;;35.07;19.96
65175;BME280;51761;42.126;24.752;2023-09-30T11:30:56;99762.47;;;35.15;20.33
65175;BME280;51761;42.126;24.752;2023-09-30T11:33:22;99741.00;;;35.11;20.00
65175;BME280;51761;42.126;24.752;2023-09-30T11:36:01;99748.94;;;35.18;20.20
65175;BME280;51761;42.126;24.752;2023-09-30T11:38:28;99746.53;;;34.92;19.36
65175;BME280;51761;42.126;24.752;2023-09-30T11:41:06;99750.91;;;34.54;19.81
65175;BME280;51761;42.126;24.752;2023-09-30T11:43:35;99741.91;;;34.35;20.04
65175;BME280;51761;42.126;24.752;2023-09-30T11:46:10;99730.16;;;34.18;20.16
65175;BME280;51761;42.126;24.752;2023-09-30T11:48:37;99716.63;;;34.13;20.49
65175;BME280;51761;42.126;24.752;2023-09-30T11:51:03;99729.50;;;34.42;21.23
65175;BME280;51761;42.126;24.752;2023-09-30T11:53:35;99718.22;;;34.61;21.09
65175;BME280;51761;42.126;24.752;2023-09-30T11:56:01;99723.44;;;35.01;20.42
65175;BME280;51761;42.126;24.752;2023-09-30T11:58:32;99728.78;;;35.12;20.51
65175;BME280;51761;42.126;24.752;2023-09-30T12:00:58;99708.63;;;34.90;19.84
65175;BME280;51761;42.126;24.752;2023-09-30T12:03:25;99719.31;;;35.19;21.05
65175;BME280;51761;42.126;24.752;2023-09-30T12:05:53;99715.44;;;35.41;20.37
65175;BME280;51761;42.126;24.752;2023-09-30T12:08:21;99700.22;;;35.33;19.67
65175;BME280;51761;42.126;24.752;2023-09-30T12:10:47;99713.50;;;35.19;20.80
65175;BME280;51761;42.126;24.752;2023-09-30T12:13:12;99703.59;;;35.22;20.26
65175;BME280;51761;42.126;24.752;2023-09-30T12:15:40;99699.88;;;34.97;20.03
65175;BME280;51761;42.126;24.752;2023-09-30T12:18:06;99710.03;;;35.13;19.69
65175;BME280;51761;42.126;24.752;2023-09-30T12:20:32;99695.53;;;35.13;19.90
65175;BME280;51761;42.126;24.752;2023-09-30T12:22:58;99698.03;;;35.09;20.55
65175;BME280;51761;42.126;24.752;2023-09-30T12:25:24;99690.44;;;35.21;20.00
65175;BME280;51761;42.126;24.752;2023-09-30T12:27:50;99681.97;;;35.16;20.27
65175;BME280;51761;42.126;24.752;2023-09-30T12:30:16;99668.59;;;34.88;19.24
65175;BME280;51761;42.126;24.752;2023-09-30T12:32:45;99684.81;;;35.23;19.97
65175;BME280;51761;42.126;24.752;2023-09-30T12:35:10;99680.44;;;34.75;20.56
65175;BME280;51761;42.126;24.752;2023-09-30T12:37:37;99684.06;;;34.83;19.32
65175;BME280;51761;42.126;24.752;2023-09-30T12:40:08;99669.00;;;34.85;19.28
65175;BME280;51761;42.126;24.752;2023-09-30T12:42:36;99656.06;;;34.78;20.71
65175;BME280;51761;42.126;24.752;2023-09-30T12:45:02;99667.31;;;34.99;20.65
65175;BME280;51761;42.126;24.752;2023-09-30T12:47:28;99667.94;;;34.97;20.68
65175;BME280;51761;42.126;24.752;2023-09-30T12:49:53;99657.38;;;35.09;19.79
65175;BME280;51761;42.126;24.752;2023-09-30T12:52:22;99651.88;;;34.64;20.56
65175;BME280;51761;42.126;24.752;2023-09-30T12:54:48;99658.63;;;34.59;20.56
65175;BME280;51761;42.126;24.752;2023-09-30T12:57:13;99650.66;;;34.36;19.98
65175;BME280;51761;42.126;24.752;2023-09-30T12:59:43;99665.34;;;34.38;20.50
65175;BME280;51761;42.126;24.752;2023-09-30T13:02:11;99665.94;;;34.29;20.65
65175;BME280;51761;42.126;24.752;2023-09-30T13:04:37;99657.47;;;34.23;20.94
65175;BME280;51761;42.126;24.752;2023-09-30T13:07:08;99653.41;;;34.26;20.22
65175;BME280;51761;42.126;24.752;2023-09-30T13:09:33;99649.94;;;34.20;21.09
65175;BME280;51761;42.126;24.752;2023-09-30T13:11:59;99648.03;;;34.08;21.18